Time;durP1;ratioP1;P1;durP2;ratioP2;P2;SDS_P1;SDS_P2;PMS_P1;PMS_P2;Temp;Humidity;BMP_temperature;BMP_pressure;BME280_temperature;BME280_humidity;BME280_pressure;Samples;Min_cycle;Max_cycle;Signal;HPM_P1;HPM_P2
2022/04/19 00:01:23;;;;;;;0.80;0.80;;;10.80;99.90;;;;;;5030934;28;20902;-63
2022/04/19 00:03:51;;;;;;;0.70;0.70;;;10.80;99.90;;;;;;5031237;28;20283;-63
2022/04/19 00:06:18;;;;;;;0.70;0.70;;;10.80;99.90;;;;;;5022981;28;20284;-62
2022/04/19 00:08:48;;;;;;;0.70;0.70;;;10.80;99.90;;;;;;5024573;28;20754;-64
2022/04/19 00:11:15;;;;;;;0.68;0.68;;;10.80;99.90;;;;;;5028202;28;20224;-64
2022/04/19 00:13:41;;;;;;;0.65;0.65;;;10.80;99.90;;;;;;5031363;28;20204;-63
2022/04/19 00:16:08;;;;;;;0.60;0.60;;;10.70;99.90;;;;;;5023792;28;20213;-63
2022/04/19 00:18:35;;;;;;;0.77;0.77;;;10.70;99.90;;;;;;5031496;28;20200;-64
2022/04/19 00:21:04;;;;;;;0.80;0.80;;;10.70;99.90;;;;;;5032005;28;20252;-62
2022/04/19 00:23:30;;;;;;;0.60;0.60;;;10.60;99.90;;;;;;5032189;28;20232;-64
2022/04/19 00:25:57;;;;;;;0.70;0.70;;;10.60;99.90;;;;;;5032244;28;20291;-63
2022/04/19 00:28:26;;;;;;;0.70;0.70;;;10.70;99.90;;;;;;5031528;28;20209;-64
2022/04/19 00:30:53;;;;;;;0.80;0.80;;;10.50;99.90;;;;;;5032455;28;20323;-62
2022/04/19 00:33:20;;;;;;;0.80;0.80;;;10.50;99.90;;;;;;5032812;28;20623;-64
2022/04/19 00:35:47;;;;;;;0.68;0.68;;;10.50;99.90;;;;;;5032859;28;20627;-63
2022/04/19 00:38:15;;;;;;;0.70;0.70;;;10.40;99.90;;;;;;5034736;28;20234;-64
2022/04/19 00:40:42;;;;;;;0.73;0.73;;;10.40;99.90;;;;;;5036583;28;20868;-63
2022/04/19 00:43:10;;;;;;;0.80;0.80;;;10.40;99.90;;;;;;5037145;28;20271;-64
2022/04/19 00:45:37;;;;;;;0.75;0.75;;;10.40;99.90;;;;;;5037523;28;20268;-63
2022/04/19 00:48:06;;;;;;;0.63;0.63;;;10.30;99.90;;;;;;5036425;28;20284;-64
2022/04/19 00:50:33;;;;;;;0.73;0.73;;;10.30;99.90;;;;;;5037036;28;20225;-62
2022/04/19 00:53:01;;;;;;;0.75;0.75;;;10.30;99.90;;;;;;5042705;28;20696;-64
2022/04/19 00:55:30;;;;;;;0.70;0.70;;;10.30;99.90;;;;;;5041803;28;20227;-64
2022/04/19 00:57:57;;;;;;;0.80;0.80;;;10.30;99.90;;;;;;5041499;28;20319;-63
2022/04/19 01:00:24;;;;;;;0.80;0.80;;;10.30;99.90;;;;;;5041138;28;20232;-63
2022/04/19 01:02:51;;;;;;;0.38;0.38;;;10.30;99.90;;;;;;5035903;28;20315;-62
2022/04/19 01:05:18;;;;;;;0.73;0.73;;;10.20;99.90;;;;;;5035335;28;20215;-62
2022/04/19 01:07:47;;;;;;;1.67;0.85;;;10.20;99.90;;;;;;5034475;28;20201;-62
2022/04/19 01:10:14;;;;;;;0.80;0.80;;;10.20;99.90;;;;;;5034792;28;20229;-63
2022/04/19 01:15:26;;;;;;;0.82;0.82;;;10.10;99.90;;;;;;5030916;28;20188;-62
2022/04/19 01:17:54;;;;;;;0.70;0.70;;;10.10;99.90;;;;;;5034001;28;20234;-63
2022/04/19 01:20:21;;;;;;;0.80;0.80;;;10.10;99.90;;;;;;5033463;28;20282;-64
2022/04/19 01:22:50;;;;;;;0.70;0.70;;;10.10;99.90;;;;;;5027324;28;20239;-61
2022/04/19 01:25:19;;;;;;;0.90;0.90;;;10.00;99.90;;;;;;5034749;28;20291;-63
2022/04/19 01:27:46;;;;;;;0.90;0.90;;;10.00;99.90;;;;;;5034294;28;20228;-62
2022/04/19 01:30:13;;;;;;;0.80;0.80;;;10.00;99.90;;;;;;5034445;28;20243;-62
2022/04/19 01:32:40;;;;;;;0.90;0.90;;;10.00;99.90;;;;;;5034972;28;20295;-64
2022/04/19 01:35:12;;;;;;;0.88;0.88;;;9.90;99.90;;;;;;5034745;28;20248;-63
2022/04/19 01:37:40;;;;;;;0.80;0.80;;;9.80;99.90;;;;;;5032738;28;20224;-63
2022/04/19 01:40:19;;;;;;;0.80;0.80;;;9.70;99.90;;;;;;5034144;28;20278;-62
2022/04/19 01:42:48;;;;;;;0.85;0.85;;;9.70;99.90;;;;;;5034059;28;20188;-63
2022/04/19 01:45:15;;;;;;;0.77;0.77;;;9.70;99.90;;;;;;5032841;28;20200;-63
2022/04/19 01:47:43;;;;;;;0.90;0.90;;;9.70;99.90;;;;;;5033508;28;20651;-62
2022/04/19 01:50:11;;;;;;;1.67;0.75;;;9.70;99.90;;;;;;5033286;28;20235;-63
2022/04/19 01:52:38;;;;;;;0.90;0.90;;;9.60;99.90;;;;;;5034468;28;20251;-65
2022/04/19 01:55:09;;;;;;;0.70;0.70;;;9.50;99.90;;;;;;5034290;28;20247;-62
2022/04/19 01:57:36;;;;;;;0.60;0.60;;;9.50;99.90;;;;;;5033316;28;20264;-63
2022/04/19 02:00:05;;;;;;;0.80;0.80;;;9.50;99.90;;;;;;5033976;28;20247;-64
2022/04/19 02:02:32;;;;;;;0.60;0.60;;;9.40;99.90;;;;;;5033978;28;20239;-64
2022/04/19 02:04:58;;;;;;;0.70;0.70;;;9.30;99.90;;;;;;5036570;28;20207;-62
2022/04/19 02:07:25;;;;;;;0.70;0.70;;;9.30;99.90;;;;;;5034382;28;20203;-63
2022/04/19 02:09:52;;;;;;;0.70;0.70;;;9.30;99.90;;;;;;5031168;28;20224;-63
2022/04/19 02:12:21;;;;;;;0.90;0.90;;;9.30;99.90;;;;;;5025916;28;20637;-62
2022/04/19 02:14:47;;;;;;;0.82;0.82;;;9.20;99.90;;;;;;5034335;28;20217;-62
2022/04/19 02:17:15;;;;;;;0.80;0.80;;;9.20;99.90;;;;;;5034209;28;20274;-63
2022/04/19 02:19:42;;;;;;;0.80;0.80;;;9.00;99.90;;;;;;5033651;28;20233;-63
2022/04/19 02:22:09;;;;;;;0.77;0.70;;;9.00;99.90;;;;;;5034174;28;20292;-63
2022/04/19 02:24:36;;;;;;;0.77;0.77;;;8.90;99.90;;;;;;5034160;28;20563;-61
2022/04/19 02:27:05;;;;;;;0.80;0.80;;;8.90;99.90;;;;;;5033684;28;20288;-60
2022/04/19 02:29:33;;;;;;;0.80;0.80;;;8.90;99.90;;;;;;5032964;28;20204;-63
2022/04/19 02:32:00;;;;;;;0.77;0.77;;;8.80;99.90;;;;;;5033553;28;20263;-64
2022/04/19 02:34:29;;;;;;;0.80;0.80;;;8.90;99.90;;;;;;5033566;28;20578;-64
2022/04/19 02:36:56;;;;;;;0.90;0.90;;;8.80;99.90;;;;;;5032666;28;20632;-63
2022/04/19 02:39:23;;;;;;;0.70;0.70;;;8.80;99.90;;;;;;5033724;28;20207;-62
2022/04/19 02:41:50;;;;;;;0.70;0.70;;;8.80;99.90;;;;;;5033535;28;20251;-62
2022/04/19 02:44:17;;;;;;;0.80;0.80;;;8.80;99.90;;;;;;5033066;28;20240;-63
2022/04/19 02:46:45;;;;;;;1.00;1.00;;;8.70;99.90;;;;;;5032291;28;20205;-64
2022/04/19 02:49:12;;;;;;;0.82;0.82;;;8.70;99.90;;;;;;5032826;28;20381;-64
2022/04/19 02:51:39;;;;;;;0.95;0.95;;;8.60;99.90;;;;;;5032733;28;20295;-62
2022/04/19 02:54:06;;;;;;;0.70;0.70;;;8.60;99.90;;;;;;5033314;28;20303;-65
2022/04/19 02:56:33;;;;;;;0.70;0.70;;;8.70;99.90;;;;;;5032406;28;20296;-64
2022/04/19 02:59:00;;;;;;;0.68;0.68;;;8.70;99.90;;;;;;5032911;28;20582;-63
2022/04/19 03:01:27;;;;;;;0.70;0.70;;;8.70;99.90;;;;;;5031907;28;20235;-63
2022/04/19 03:03:55;;;;;;;0.68;0.68;;;8.60;99.90;;;;;;5044184;28;20211;-64
2022/04/19 03:06:22;;;;;;;0.90;0.90;;;8.60;99.90;;;;;;5043944;28;20246;-60
2022/04/19 03:08:49;;;;;;;0.80;0.80;;;8.60;99.90;;;;;;5036222;28;20208;-62
2022/04/19 03:11:15;;;;;;;0.70;0.70;;;8.50;99.90;;;;;;5035977;28;20757;-63
2022/04/19 03:13:43;;;;;;;0.80;0.80;;;8.60;99.90;;;;;;5034959;28;20234;-63
2022/04/19 03:16:13;;;;;;;0.95;0.80;;;8.50;99.90;;;;;;5034317;28;20205;-62
2022/04/19 03:18:41;;;;;;;0.80;0.80;;;8.50;99.90;;;;;;5035150;28;20690;-63
2022/04/19 03:21:10;;;;;;;0.70;0.70;;;8.50;99.90;;;;;;5035397;28;20256;-63
2022/04/19 03:29:06;;;;;;;0.70;0.70;;;8.50;99.90;;;;;;5033069;28;20183;-64
2022/04/19 03:31:34;;;;;;;0.90;0.90;;;8.40;99.90;;;;;;5046773;22;20316;-67
2022/04/19 03:34:01;;;;;;;0.77;0.77;;;8.50;99.90;;;;;;5032725;28;20212;-67
2022/04/19 03:36:29;;;;;;;0.75;0.75;;;8.40;99.90;;;;;;5032148;28;20268;-66
2022/04/19 03:38:56;;;;;;;0.70;0.70;;;8.50;99.90;;;;;;5033504;28;20231;-68
2022/04/19 03:41:23;;;;;;;0.60;0.60;;;8.40;99.90;;;;;;5031625;28;20235;-67
2022/04/19 03:43:51;;;;;;;0.80;0.80;;;8.40;99.90;;;;;;5024466;28;20559;-67
2022/04/19 03:46:17;;;;;;;0.80;0.80;;;8.40;99.90;;;;;;5031837;28;20206;-68
2022/04/19 03:48:45;;;;;;;0.80;0.80;;;8.30;99.90;;;;;;5031304;28;20200;-67
2022/04/19 03:51:12;;;;;;;0.70;0.70;;;8.20;99.90;;;;;;5031849;28;20235;-67
2022/04/19 03:53:41;;;;;;;0.60;0.60;;;8.20;99.90;;;;;;5031929;28;20295;-66
2022/04/19 03:56:08;;;;;;;0.60;0.60;;;8.10;99.90;;;;;;5033338;28;20204;-66
2022/04/19 03:58:35;;;;;;;0.80;0.80;;;8.00;99.90;;;;;;5032072;28;20255;-68
2022/04/19 04:01:02;;;;;;;0.70;0.70;;;7.90;99.90;;;;;;5032994;28;20267;-67
2022/04/19 04:03:29;;;;;;;0.80;0.80;;;7.80;99.90;;;;;;5032193;28;20270;-67
2022/04/19 04:05:56;;;;;;;0.70;0.70;;;7.70;99.90;;;;;;5032571;28;20294;-67
2022/04/19 04:08:23;;;;;;;0.70;0.70;;;7.60;99.90;;;;;;5023075;28;20203;-67
2022/04/19 04:10:51;;;;;;;0.80;0.80;;;7.50;99.90;;;;;;5012570;28;20817;-67
2022/04/19 04:13:18;;;;;;;0.73;0.73;;;7.50;99.90;;;;;;5015294;28;20209;-67
2022/04/19 04:15:45;;;;;;;0.70;0.70;;;7.40;99.90;;;;;;5017631;28;20635;-66
2022/04/19 04:18:12;;;;;;;0.77;0.77;;;7.50;99.90;;;;;;5017516;28;20225;-66
2022/04/19 04:20:38;;;;;;;0.80;0.80;;;7.50;99.90;;;;;;5016885;28;20267;-67
2022/04/19 04:23:06;;;;;;;1.02;0.80;;;7.40;99.90;;;;;;5015473;28;20685;-65
2022/04/19 04:25:32;;;;;;;0.73;0.73;;;7.30;99.90;;;;;;5016009;28;20233;-67
2022/04/19 04:28:01;;;;;;;0.77;0.77;;;7.30;99.90;;;;;;5015786;28;20209;-67
2022/04/19 04:30:28;;;;;;;0.90;0.90;;;7.30;99.90;;;;;;5016650;28;20255;-68
2022/04/19 04:32:54;;;;;;;0.73;0.73;;;7.30;99.90;;;;;;5032003;28;20296;-68
2022/04/19 04:35:21;;;;;;;0.80;0.80;;;7.30;99.90;;;;;;5026270;28;20250;-67
2022/04/19 04:37:48;;;;;;;0.90;0.90;;;7.20;99.90;;;;;;5015272;28;20586;-68
2022/04/19 04:40:15;;;;;;;0.88;0.70;;;7.20;99.90;;;;;;5017280;28;20256;-67
2022/04/19 04:42:42;;;;;;;0.70;0.70;;;7.20;99.90;;;;;;5027300;28;20240;-67
2022/04/19 04:45:11;;;;;;;0.70;0.70;;;7.20;99.90;;;;;;5036445;28;20299;-66
2022/04/19 04:50:19;;;;;;;0.68;0.68;;;7.10;99.90;;;;;;5023914;28;20231;-68
2022/04/19 04:52:46;;;;;;;2.13;0.90;;;7.00;99.90;;;;;;5029806;28;20288;-69
2022/04/19 04:55:13;;;;;;;0.80;0.80;;;7.10;99.90;;;;;;5016792;28;20216;-66
2022/04/19 04:57:40;;;;;;;0.80;0.80;;;7.10;99.90;;;;;;5029245;28;20271;-67
2022/04/19 05:00:10;;;;;;;0.90;0.90;;;7.10;99.90;;;;;;5035251;28;20251;-67
2022/04/19 05:02:37;;;;;;;0.68;0.68;;;7.10;99.90;;;;;;5027103;28;20291;-66
2022/04/19 05:05:05;;;;;;;0.80;0.80;;;7.10;99.90;;;;;;5029009;28;20611;-68
2022/04/19 05:07:31;;;;;;;0.90;0.90;;;7.10;99.90;;;;;;5025740;28;20298;-66
2022/04/19 05:09:59;;;;;;;1.00;1.00;;;7.10;99.90;;;;;;5035371;28;20211;-69
2022/04/19 05:12:26;;;;;;;0.77;0.77;;;7.10;99.90;;;;;;5031963;28;20204;-69
2022/04/19 05:14:53;;;;;;;0.77;0.77;;;7.00;99.90;;;;;;5028340;28;20288;-67
2022/04/19 05:17:21;;;;;;;0.80;0.80;;;7.00;99.90;;;;;;5025512;28;20239;-69
2022/04/19 05:19:48;;;;;;;1.00;1.00;;;7.10;99.90;;;;;;5034979;28;20315;-67
2022/04/19 05:22:15;;;;;;;0.82;0.82;;;7.10;99.90;;;;;;5025836;28;20308;-69
2022/04/19 05:24:42;;;;;;;0.80;0.80;;;7.20;99.90;;;;;;5033041;28;20264;-71
2022/04/19 05:27:09;;;;;;;0.80;0.80;;;7.20;99.90;;;;;;5035961;28;20236;-69
2022/04/19 05:29:36;;;;;;;0.80;0.80;;;7.30;99.90;;;;;;5039851;28;20232;-68
2022/04/19 05:32:03;;;;;;;1.00;1.00;;;7.40;99.90;;;;;;5040209;28;20300;-71
2022/04/19 05:34:32;;;;;;;0.90;0.90;;;7.50;99.90;;;;;;5035490;28;20209;-68
2022/04/19 05:36:59;;;;;;;0.90;0.90;;;7.50;99.90;;;;;;5028728;28;20205;-69
2022/04/19 05:39:26;;;;;;;1.25;1.15;;;7.50;99.90;;;;;;5032711;28;20648;-69
2022/04/19 05:41:52;;;;;;;0.90;0.90;;;7.70;99.90;;;;;;5035236;28;20263;-68
2022/04/19 05:44:20;;;;;;;1.00;1.00;;;7.70;99.90;;;;;;5026969;28;20244;-68
2022/04/19 05:46:47;;;;;;;0.98;0.98;;;8.00;99.90;;;;;;5018885;28;20209;-66
2022/04/19 05:49:14;;;;;;;0.90;0.90;;;7.90;99.90;;;;;;5025975;28;20206;-68
2022/04/19 05:51:42;;;;;;;1.00;1.00;;;7.90;99.90;;;;;;5038378;28;20311;-68
2022/04/19 05:54:09;;;;;;;0.90;0.90;;;7.90;99.90;;;;;;5035246;28;20239;-67
2022/04/19 05:56:36;;;;;;;0.80;0.80;;;8.10;99.90;;;;;;5035640;28;20200;-67
2022/04/19 05:59:03;;;;;;;1.00;1.00;;;8.40;99.90;;;;;;5034001;28;20231;-69
2022/04/19 06:04:51;;;;;;;1.08;1.08;;;8.20;99.90;;;;;;5031390;28;20351;-69
2022/04/19 06:07:02;;;;;;;0.90;0.90;;;8.40;99.90;;;;;;5024261;28;20673;-67
2022/04/19 06:09:29;;;;;;;1.00;1.00;;;8.60;99.90;;;;;;5018300;28;20731;-69
2022/04/19 06:11:56;;;;;;;0.90;0.90;;;8.70;99.90;;;;;;5025785;28;20980;-68
2022/04/19 06:14:23;;;;;;;1.00;1.00;;;8.80;99.90;;;;;;5027572;28;20201;-69
2022/04/19 06:16:50;;;;;;;1.08;1.08;;;9.00;99.90;;;;;;5014107;28;20220;-68
2022/04/19 06:19:17;;;;;;;1.10;1.10;;;9.10;99.90;;;;;;5014613;28;20256;-69
2022/04/19 06:21:45;;;;;;;1.10;1.10;;;9.10;99.90;;;;;;5022639;28;20239;-68
2022/04/19 06:24:13;;;;;;;0.80;0.80;;;9.20;99.90;;;;;;5013742;28;20205;-69
2022/04/19 06:26:40;;;;;;;0.90;0.90;;;9.30;99.90;;;;;;5013650;28;20236;-68
2022/04/19 06:29:07;;;;;;;0.70;0.70;;;9.40;99.90;;;;;;5014551;28;20204;-69
2022/04/19 06:31:34;;;;;;;0.95;0.95;;;9.50;99.90;;;;;;5014269;28;20245;-69
2022/04/19 06:34:01;;;;;;;1.00;1.00;;;9.60;99.90;;;;;;5013945;28;20209;-69
2022/04/19 06:36:28;;;;;;;0.82;0.82;;;9.70;99.90;;;;;;5014850;28;20304;-69
2022/04/19 06:38:55;;;;;;;0.90;0.90;;;9.90;99.90;;;;;;5025573;28;20284;-68
2022/04/19 06:41:23;;;;;;;1.13;1.13;;;10.10;99.90;;;;;;5026401;28;20259;-69
2022/04/19 06:43:50;;;;;;;0.90;0.90;;;10.30;99.90;;;;;;5013144;28;20899;-69
2022/04/19 06:46:18;;;;;;;0.70;0.70;;;10.30;99.90;;;;;;5011532;28;20831;-70
2022/04/19 06:48:45;;;;;;;0.63;0.63;;;10.40;99.90;;;;;;5010683;28;20209;-69
2022/04/19 06:51:12;;;;;;;1.00;1.00;;;10.50;99.90;;;;;;5012210;28;20316;-73
2022/04/19 06:53:39;;;;;;;0.80;0.80;;;10.60;99.90;;;;;;5012492;28;20286;-69
2022/04/19 06:56:06;;;;;;;0.63;0.63;;;10.70;99.90;;;;;;5020728;28;20284;-70
2022/04/19 06:58:34;;;;;;;0.80;0.80;;;10.90;99.90;;;;;;5024285;28;20251;-68
2022/04/19 07:01:01;;;;;;;0.80;0.80;;;11.00;99.90;;;;;;5033501;28;20261;-69
2022/04/19 07:03:28;;;;;;;0.77;0.77;;;11.20;99.90;;;;;;5033270;28;20298;-69
2022/04/19 07:05:55;;;;;;;0.80;0.80;;;11.40;99.90;;;;;;5033164;28;20210;-69
2022/04/19 07:08:22;;;;;;;0.70;0.70;;;11.60;99.90;;;;;;5032457;28;20208;-68
2022/04/19 07:10:49;;;;;;;1.42;0.90;;;11.80;99.90;;;;;;5033373;28;20265;-69
2022/04/19 07:13:16;;;;;;;0.88;0.88;;;12.00;99.90;;;;;;5032963;28;20342;-68
2022/04/19 07:15:45;;;;;;;0.70;0.70;;;12.40;99.90;;;;;;5032725;28;20580;-69
2022/04/19 07:18:13;;;;;;;0.70;0.70;;;12.40;99.90;;;;;;5033151;28;20205;-68
2022/04/19 07:29:07;;;;;;;1.15;1.13;;;12.80;99.90;;;;;;4982544;28;20222;-69
2022/04/19 07:31:35;;;;;;;1.20;1.20;;;12.70;99.90;;;;;;4980310;28;20281;-70
2022/04/19 07:34:03;;;;;;;1.20;1.20;;;12.70;99.90;;;;;;4977823;28;20278;-69
2022/04/19 07:36:30;;;;;;;1.10;1.10;;;12.70;99.90;;;;;;4964290;28;21175;-68
2022/04/19 07:38:58;;;;;;;2.58;1.20;;;12.70;99.90;;;;;;4971532;28;20239;-69
2022/04/19 07:41:25;;;;;;;1.67;1.42;;;12.80;99.90;;;;;;4971609;28;20321;-67
2022/04/19 07:43:52;;;;;;;1.20;1.20;;;12.90;99.90;;;;;;4972050;28;20210;-68
2022/04/19 07:46:19;;;;;;;1.40;1.40;;;12.90;99.90;;;;;;4971017;28;20203;-69
2022/04/19 07:48:51;;;;;;;1.77;1.67;;;12.90;99.90;;;;;;4968944;28;20199;-69
2022/04/19 07:51:19;;;;;;;1.60;1.55;;;13.10;99.90;;;;;;4963681;28;20227;-69
2022/04/19 07:53:46;;;;;;;1.90;1.80;;;13.20;99.90;;;;;;4957457;28;20575;-69
2022/04/19 07:56:13;;;;;;;1.60;1.50;;;13.20;99.90;;;;;;4963674;28;20198;-68
2022/04/19 07:58:42;;;;;;;1.75;1.65;;;13.30;99.90;;;;;;4965995;28;20222;-66
2022/04/19 08:01:10;;;;;;;1.45;1.45;;;13.50;99.90;;;;;;5023692;28;20221;-67
2022/04/19 08:03:37;;;;;;;1.50;1.40;;;13.50;99.90;;;;;;5032147;28;20205;-68
2022/04/19 08:06:05;;;;;;;1.35;1.35;;;13.50;99.90;;;;;;5031851;28;20300;-69
2022/04/19 08:08:32;;;;;;;1.40;1.40;;;13.60;99.90;;;;;;5031823;28;20236;-67
2022/04/19 08:10:59;;;;;;;1.45;1.35;;;13.70;99.90;;;;;;5032314;28;20225;-67
2022/04/19 08:13:27;;;;;;;1.00;1.00;;;13.80;99.90;;;;;;5031805;28;20655;-67
2022/04/19 08:15:54;;;;;;;1.10;1.10;;;13.90;99.90;;;;;;5031843;28;20216;-69
2022/04/19 08:18:21;;;;;;;1.13;1.13;;;14.00;99.90;;;;;;5031481;28;20289;-68
2022/04/19 08:20:48;;;;;;;1.10;1.10;;;14.10;99.90;;;;;;5031949;28;20319;-68
2022/04/19 08:23:17;;;;;;;1.00;1.00;;;14.30;99.90;;;;;;5031777;28;20208;-68
2022/04/19 08:25:44;;;;;;;1.15;1.10;;;14.30;99.90;;;;;;5031753;28;20677;-68
2022/04/19 08:28:11;;;;;;;1.45;1.20;;;14.30;99.90;;;;;;5031172;28;20281;-67
2022/04/19 08:30:39;;;;;;;0.98;0.98;;;14.30;99.90;;;;;;5032120;28;20702;-67
2022/04/19 08:33:06;;;;;;;1.55;1.10;;;14.30;99.90;;;;;;5034752;28;20607;-68
2022/04/19 08:35:33;;;;;;;1.10;1.10;;;14.30;99.90;;;;;;5048500;28;20235;-69
2022/04/19 08:38:00;;;;;;;3.05;1.10;;;14.20;99.90;;;;;;5047101;28;20307;-69
2022/04/19 08:40:32;;;;;;;1.52;1.10;;;14.40;99.90;;;;;;5041190;28;20237;-67
2022/04/19 08:43:00;;;;;;;1.00;1.00;;;14.60;99.90;;;;;;5033794;28;20193;-69
2022/04/19 08:45:28;;;;;;;1.50;1.38;;;14.80;99.90;;;;;;5032882;28;20212;-66
2022/04/19 08:47:58;;;;;;;1.05;1.05;;;15.00;99.90;;;;;;5031943;28;20205;-67
2022/04/19 08:50:25;;;;;;;1.30;1.20;;;15.20;99.90;;;;;;5032277;28;20316;-67
2022/04/19 08:58:18;;;;;;;1.10;1.10;;;14.70;99.90;;;;;;5030933;28;20211;-69
2022/04/19 09:00:45;;;;;;;1.00;1.00;;;14.90;99.90;;;;;;5033897;28;20315;-66
2022/04/19 09:03:13;;;;;;;1.23;1.20;;;15.00;99.90;;;;;;5034848;28;20295;-67
2022/04/19 09:05:50;;;;;;;2.17;1.20;;;15.20;99.90;;;;;;5036705;28;20290;-66
2022/04/19 09:08:17;;;;;;;1.30;0.90;;;15.20;99.90;;;;;;5034548;28;20629;-67
2022/04/19 09:10:46;;;;;;;1.00;1.00;;;15.30;99.90;;;;;;5035103;28;20312;-67
2022/04/19 09:13:20;;;;;;;1.05;0.95;;;15.50;99.90;;;;;;5035700;28;20292;-66
2022/04/19 09:15:48;;;;;;;1.20;1.20;;;15.60;99.90;;;;;;5036246;28;20189;-68
2022/04/19 09:18:24;;;;;;;1.00;1.00;;;15.70;99.90;;;;;;5034551;28;20237;-67
2022/04/19 09:20:52;;;;;;;0.80;0.80;;;16.00;99.90;;;;;;5034406;28;20834;-68
2022/04/19 09:23:20;;;;;;;1.00;1.00;;;16.20;99.90;;;;;;5034506;28;20240;-68
2022/04/19 09:25:51;;;;;;;1.30;1.20;;;16.30;99.90;;;;;;5035107;28;20288;-68
2022/04/19 09:28:20;;;;;;;0.80;0.80;;;16.30;99.90;;;;;;5035044;28;20275;-68
2022/04/19 09:30:49;;;;;;;0.95;0.95;;;16.40;99.90;;;;;;5036745;28;20271;-67
2022/04/19 09:33:18;;;;;;;0.80;0.80;;;16.50;99.90;;;;;;5035924;28;20243;-68
2022/04/19 09:35:48;;;;;;;0.90;0.90;;;16.60;99.90;;;;;;5036538;28;20256;-69
2022/04/19 09:38:16;;;;;;;1.10;1.10;;;16.70;99.90;;;;;;5034857;28;20193;-69
2022/04/19 09:40:44;;;;;;;1.42;1.10;;;16.90;99.90;;;;;;5035538;28;20306;-68
2022/04/19 09:43:14;;;;;;;1.20;1.10;;;17.10;99.90;;;;;;5034725;28;20208;-68
2022/04/19 09:45:50;;;;;;;2.10;1.10;;;17.30;99.90;;;;;;5034893;28;20204;-68
2022/04/19 09:48:18;;;;;;;0.98;0.98;;;17.00;99.90;;;;;;5033968;28;20208;-68
2022/04/19 09:53:19;;;;;;;1.00;1.00;;;17.20;99.90;;;;;;5035046;28;20214;-65
2022/04/19 09:55:52;;;;;;;1.00;1.00;;;17.20;99.90;;;;;;5038731;28;20569;-65
2022/04/19 09:58:21;;;;;;;0.80;0.80;;;17.30;99.90;;;;;;5036350;28;20590;-65
2022/04/19 10:00:49;;;;;;;0.93;0.93;;;17.40;99.90;;;;;;5036145;28;20263;-64
2022/04/19 10:08:49;;;;;;;1.10;1.10;;;17.70;99.90;;;;;;4994129;28;20202;-65
2022/04/19 10:11:16;;;;;;;1.00;1.00;;;17.80;99.90;;;;;;4993697;28;20313;-65
2022/04/19 10:13:46;;;;;;;1.10;1.10;;;17.80;99.90;;;;;;4994155;28;20294;-65
2022/04/19 10:16:15;;;;;;;1.10;1.10;;;18.00;99.90;;;;;;4994536;28;20301;-65
2022/04/19 10:18:44;;;;;;;1.13;1.00;;;18.20;99.90;;;;;;5000279;28;20292;-65
2022/04/19 10:21:15;;;;;;;1.25;1.20;;;18.30;99.90;;;;;;5024715;28;20256;-64
2022/04/19 10:23:43;;;;;;;1.25;1.20;;;18.10;99.90;;;;;;5032949;28;20689;-65
2022/04/19 10:26:18;;;;;;;1.30;1.20;;;18.00;99.90;;;;;;5032613;28;20667;-64
2022/04/19 10:28:47;;;;;;;1.70;1.25;;;18.10;99.90;;;;;;5032097;28;20769;-64
2022/04/19 10:31:15;;;;;;;1.13;1.13;;;18.40;99.90;;;;;;5032823;28;20220;-65
2022/04/19 10:33:49;;;;;;;1.10;1.10;;;18.30;99.90;;;;;;5033036;28;20209;-65
2022/04/19 10:36:18;;;;;;;1.10;1.10;;;18.20;99.90;;;;;;5032498;28;20212;-65
2022/04/19 10:38:47;;;;;;;1.10;1.10;;;18.40;99.90;;;;;;5032445;28;20217;-64
2022/04/19 10:41:48;;;;;;;1.00;1.00;;;18.50;99.90;;;;;;5033065;28;20315;-69
2022/04/19 10:44:30;;;;;;;1.00;1.00;;;18.60;99.90;;;;;;5040020;28;20215;-64
2022/04/19 10:47:11;;;;;;;0.70;0.70;;;18.70;99.90;;;;;;5036754;28;20299;-66
2022/04/19 10:49:49;;;;;;;0.80;0.80;;;18.90;99.90;;;;;;5040542;28;20197;-64
2022/04/19 10:52:49;;;;;;;1.00;1.00;;;19.10;99.90;;;;;;5041803;28;20282;-66
2022/04/19 10:55:30;;;;;;;0.80;0.80;;;19.20;99.90;;;;;;5006813;28;20207;-66
2022/04/19 10:58:18;;;;;;;0.90;0.90;;;19.30;99.90;;;;;;4993292;28;20209;-64
2022/04/19 11:00:52;;;;;;;0.93;0.93;;;19.20;99.80;;;;;;4997338;28;20320;-66
2022/04/19 11:03:21;;;;;;;0.80;0.80;;;19.30;99.70;;;;;;5002457;28;20209;-64
2022/04/19 11:05:50;;;;;;;0.93;0.93;;;19.20;99.10;;;;;;5002531;28;20268;-66
2022/04/19 11:08:38;;;;;;;0.70;0.70;;;19.40;99.00;;;;;;4995908;28;20747;-65
2022/04/19 11:11:21;;;;;;;0.80;0.80;;;19.50;98.60;;;;;;4999406;28;20234;-66
2022/04/19 11:14:20;;;;;;;1.10;1.10;;;19.70;98.80;;;;;;4997276;28;20293;-65
2022/04/19 11:16:51;;;;;;;0.70;0.70;;;19.90;98.80;;;;;;4994163;28;20297;-66
2022/04/19 11:19:20;;;;;;;0.80;0.80;;;19.80;97.10;;;;;;4993502;28;20206;-65
2022/04/19 11:22:00;;;;;;;0.90;0.90;;;19.90;96.40;;;;;;4997824;28;20312;-65
2022/04/19 11:25:06;;;;;;;0.90;0.90;;;19.70;95.20;;;;;;5004565;28;20291;-66
2022/04/19 11:28:10;;;;;;;0.93;0.93;;;19.70;94.70;;;;;;5011622;28;20212;-64
2022/04/19 11:30:38;;;;;;;0.93;0.90;;;19.70;94.10;;;;;;5012171;28;20595;-65
2022/04/19 11:33:08;;;;;;;0.80;0.80;;;19.80;94.40;;;;;;5012361;28;20221;-65
2022/04/19 11:35:35;;;;;;;1.27;0.80;;;19.90;93.70;;;;;;5012565;28;20588;-66
2022/04/19 11:38:08;;;;;;;2.83;1.00;;;19.80;93.30;;;;;;5011711;28;20220;-65
2022/04/19 11:49:07;;;;;;;0.80;0.80;;;20.20;91.80;;;;;;5016222;28;20236;-65
2022/04/19 11:51:36;;;;;;;1.42;1.00;;;20.20;92.20;;;;;;5010650;28;20279;-65
2022/04/19 11:54:04;;;;;;;5.03;2.13;;;20.40;91.80;;;;;;5011255;28;20201;-64
2022/04/19 11:56:31;;;;;;;5.18;2.20;;;20.30;91.30;;;;;;5009834;28;20296;-66
2022/04/19 11:59:00;;;;;;;0.95;0.95;;;20.30;91.80;;;;;;5010467;28;20297;-64
2022/04/19 12:01:28;;;;;;;0.90;0.90;;;20.30;91.20;;;;;;5010184;28;20239;-66
2022/04/19 12:03:55;;;;;;;0.88;0.88;;;20.30;91.00;;;;;;5003193;28;20846;-66
2022/04/19 12:06:24;;;;;;;1.00;0.90;;;20.20;90.80;;;;;;5010536;28;20243;-66
2022/04/19 12:08:52;;;;;;;1.30;0.95;;;20.20;91.10;;;;;;5008671;28;20288;-66
2022/04/19 12:11:21;;;;;;;1.30;1.20;;;20.20;91.20;;;;;;5010809;28;20221;-66
2022/04/19 12:13:49;;;;;;;0.98;0.98;;;20.00;90.90;;;;;;5011467;28;20197;-66
2022/04/19 12:16:31;;;;;;;0.90;0.90;;;20.00;90.40;;;;;;5011689;28;20225;-66
2022/04/19 12:19:00;;;;;;;1.00;1.00;;;20.20;90.20;;;;;;5009352;28;20722;-66
2022/04/19 12:21:40;;;;;;;0.68;0.68;;;20.20;90.30;;;;;;5009741;28;20233;-65
2022/04/19 12:24:09;;;;;;;2.45;1.10;;;20.20;90.70;;;;;;5012826;28;20209;-68
2022/04/19 12:26:37;;;;;;;0.95;0.95;;;20.30;90.00;;;;;;5025023;28;20232;-64
2022/04/19 12:29:14;;;;;;;0.80;0.80;;;20.30;90.30;;;;;;5017798;28;20634;-67
2022/04/19 12:31:44;;;;;;;0.98;0.98;;;20.60;91.00;;;;;;5021183;28;20225;-64
2022/04/19 12:34:12;;;;;;;0.82;0.82;;;20.60;90.40;;;;;;5029078;28;20566;-65
2022/04/19 12:36:44;;;;;;;0.80;0.80;;;20.70;90.30;;;;;;5007261;28;20241;-65
2022/04/19 12:39:12;;;;;;;0.82;0.82;;;20.90;90.20;;;;;;5001877;28;20202;-66
2022/04/19 12:41:40;;;;;;;0.80;0.80;;;20.90;89.00;;;;;;4999688;28;20253;-64
2022/04/19 12:44:12;;;;;;;0.70;0.70;;;20.90;89.40;;;;;;5004765;28;20241;-63
2022/04/19 12:46:40;;;;;;;0.90;0.90;;;20.70;88.70;;;;;;5002867;28;20269;-66
2022/04/19 12:49:08;;;;;;;1.02;0.95;;;20.60;87.80;;;;;;5003361;28;20205;-64
2022/04/19 12:51:37;;;;;;;1.52;0.80;;;20.60;89.50;;;;;;4995836;28;20268;-64
2022/04/19 12:54:09;;;;;;;0.80;0.80;;;20.70;87.50;;;;;;4996034;28;20216;-64
2022/04/19 12:59:58;;;;;;;0.90;0.90;;;20.60;86.30;;;;;;4995970;28;20221;-66
2022/04/19 13:02:25;;;;;;;0.95;0.95;;;20.60;86.20;;;;;;4995689;28;20222;-65
2022/04/19 13:04:52;;;;;;;0.80;0.80;;;20.50;86.10;;;;;;4998693;28;20213;-64
2022/04/19 13:13:06;;;;;;;0.85;0.85;;;20.80;84.70;;;;;;5012532;28;20465;-66
2022/04/19 13:15:33;;;;;;;1.05;0.85;;;20.80;84.50;;;;;;5013367;28;20748;-64
2022/04/19 13:18:00;;;;;;;0.98;0.98;;;20.80;83.30;;;;;;5010705;28;20197;-64
2022/04/19 13:20:28;;;;;;;0.82;0.82;;;20.80;83.60;;;;;;5013110;28;20232;-65
2022/04/19 13:22:55;;;;;;;0.68;0.68;;;20.70;84.30;;;;;;5013250;28;20233;-65
2022/04/19 13:25:23;;;;;;;1.38;1.00;;;20.70;83.10;;;;;;5013970;28;20279;-65
2022/04/19 13:27:51;;;;;;;0.70;0.70;;;20.70;82.20;;;;;;5012985;28;20288;-64
2022/04/19 13:30:19;;;;;;;0.68;0.68;;;20.80;82.50;;;;;;5013950;28;20205;-64
2022/04/19 13:32:46;;;;;;;0.88;0.88;;;21.00;84.00;;;;;;5013573;28;20614;-66
2022/04/19 13:35:14;;;;;;;0.40;0.40;;;21.10;80.50;;;;;;5013952;28;20206;-66
2022/04/19 13:40:26;;;;;;;0.65;0.65;;;20.90;78.70;;;;;;5011473;28;20305;-66
2022/04/19 13:42:53;;;;;;;0.60;0.60;;;21.00;78.40;;;;;;5012653;28;20649;-66
2022/04/19 13:45:20;;;;;;;0.50;0.50;;;21.00;77.00;;;;;;5009508;28;20229;-65
2022/04/19 13:47:47;;;;;;;0.70;0.70;;;21.10;76.10;;;;;;5011993;28;20237;-65
2022/04/19 13:50:14;;;;;;;0.43;0.43;;;21.20;74.60;;;;;;5013249;28;20209;-65
2022/04/19 13:52:41;;;;;;;0.50;0.50;;;21.10;76.30;;;;;;5006318;28;20240;-65
2022/04/19 13:55:14;;;;;;;0.43;0.43;;;21.20;74.70;;;;;;5014215;28;20778;-66